Time;durP1;ratioP1;P1;durP2;ratioP2;P2;SDS_P1;SDS_P2;PMS_P1;PMS_P2;Temp;Humidity;BMP_temperature;BMP_pressure;BME280_temperature;BME280_humidity;BME280_pressure;Samples;Min_cycle;Max_cycle;Signal;HPM_P1;HPM_P2
2021/12/11 00:01:18;;;;;;;137.27;64.57;;;179.20;2252.80;;;;;;5113814;27;20122;-66
2021/12/11 00:03:47;;;;;;;123.32;58.72;;;;;;;;;;5136658;27;20038;-66
2021/12/11 00:06:14;;;;;;;115.65;56.63;;;;;;;;;;5136580;27;20027;-66
2021/12/11 00:08:42;;;;;;;123.70;62.13;;;;;;;;;;5131995;27;20023;-66
2021/12/11 00:11:12;;;;;;;130.85;63.60;;;179.20;2252.80;;;;;;5136416;27;20026;-65
2021/12/11 00:13:40;;;;;;;129.40;64.25;;;179.30;2252.80;;;;;;5136590;27;20023;-66
2021/12/11 00:16:11;;;;;;;121.25;62.97;;;179.30;2252.80;;;;;;5118452;27;20392;-65
2021/12/11 00:18:38;;;;;;;136.07;74.22;;;154.40;2252.80;;;;;;5117565;27;20091;-65
2021/12/11 00:21:08;;;;;;;132.70;64.85;;;154.50;2252.80;;;;;;5128535;27;20023;-66
2021/12/11 00:23:51;;;;;;;131.50;65.55;;;154.50;2252.80;;;;;;5133477;27;20027;-66
2021/12/11 00:26:30;;;;;;;120.07;61.40;;;179.20;2252.80;;;;;;5136126;27;20023;-66
2021/12/11 00:28:57;;;;;;;124.90;64.90;;;154.50;2252.80;;;;;;5136037;27;20035;-65
2021/12/11 00:31:30;;;;;;;135.20;64.40;;;179.30;2252.80;;;;;;5136811;27;20028;-66
2021/12/11 00:33:57;;;;;;;133.70;64.18;;;179.30;2252.80;;;;;;5136506;27;20070;-65
2021/12/11 00:36:28;;;;;;;128.88;65.43;;;179.20;2252.80;;;;;;5136007;27;20019;-66
2021/12/11 00:39:00;;;;;;;133.82;69.32;;;179.20;2252.80;;;;;;5134971;27;20034;-65
2021/12/11 00:41:26;;;;;;;136.55;71.70;;;;;;;;;;5121166;27;20034;-67
2021/12/11 00:43:52;;;;;;;161.82;80.20;;;;;;;;;;5128344;27;20031;-66
2021/12/11 00:46:26;;;;;;;211.10;105.47;;;154.40;2252.80;;;;;;5135885;27;20098;-65
2021/12/11 00:48:53;;;;;;;161.43;75.95;;;;;;;;;;5135915;27;20023;-66
2021/12/11 00:51:20;;;;;;;180.07;84.88;;;;;;;;;;5135833;27;20027;-66
2021/12/11 00:53:50;;;;;;;161.15;77.55;;;;;;;;;;5135766;27;20034;-66
2021/12/11 00:56:22;;;;;;;229.10;95.78;;;;;;;;;;5107612;27;20038;-65
2021/12/11 00:58:50;;;;;;;145.40;71.65;;;;;;;;;;5112868;28;20409;-66
2021/12/11 01:01:24;;;;;;;129.27;61.30;;;154.50;2252.80;;;;;;5128753;27;20027;-65
2021/12/11 01:04:01;;;;;;;138.18;65.97;;;154.50;2252.80;;;;;;5135999;27;20046;-65
2021/12/11 01:06:52;;;;;;;125.93;65.50;;;179.20;2252.80;;;;;;5135615;27;20597;-65
2021/12/11 01:09:24;;;;;;;177.10;86.72;;;179.30;2252.80;;;;;;5135319;27;20477;-65
2021/12/11 01:11:50;;;;;;;198.45;83.72;;;;;;;;;;5135340;27;20023;-67
2021/12/11 01:14:51;;;;;;;210.70;91.75;;;;;;;;;;5124654;27;20016;-69
2021/12/11 01:17:24;;;;;;;168.20;88.78;;;128.90;2252.80;;;;;;5115355;28;20035;-67
2021/12/11 01:19:54;;;;;;;185.27;89.47;;;;;;;;;;5115172;28;20028;-67
2021/12/11 01:22:35;;;;;;;148.15;80.38;;;154.20;2252.80;;;;;;5114681;28;20019;-66
2021/12/11 01:25:10;;;;;;;158.48;81.07;;;;;;;;;;5114610;28;20277;-65
2021/12/11 01:27:38;;;;;;;126.43;75.63;;;;;;;;;;5101123;27;20034;-66
2021/12/11 01:30:05;;;;;;;117.63;63.13;;;;;;;;;;5134936;27;20527;-67
2021/12/11 01:32:31;;;;;;;112.53;57.58;;;;;;;;;;5134676;27;20258;-67
2021/12/11 01:35:00;;;;;;;103.25;51.72;;;;;;;;;;5134846;27;20035;-68
2021/12/11 01:37:27;;;;;;;98.53;51.25;;;;;;;;;;5134964;27;20068;-67
2021/12/11 01:39:53;;;;;;;95.25;50.35;;;;;;;;;;5134511;27;20027;-65
2021/12/11 01:42:27;;;;;;;102.15;52.17;;;;;;;;;;5133381;27;20023;-64
2021/12/11 01:44:54;;;;;;;100.20;54.00;;;;;;;;;;5134794;27;20123;-66
2021/12/11 01:47:26;;;;;;;89.43;42.60;;;153.60;2252.80;;;;;;5134741;27;20016;-65
2021/12/11 01:49:54;;;;;;;;;;;;;;;;;;5135062;27;20019;-66
2021/12/11 01:52:33;;;;;;;67.78;36.67;;;128.50;2252.80;;;;;;5134728;27;20303;-65
2021/12/11 01:55:00;;;;;;;75.65;40.92;;;;;;;;;;5134355;27;20031;-65
2021/12/11 01:57:28;;;;;;;73.53;37.38;;;;;;;;;;5127757;27;20020;-66
2021/12/11 01:59:57;;;;;;;70.95;38.10;;;;;;;;;;5095375;28;20036;-65
2021/12/11 02:02:26;;;;;;;68.53;38.05;;;;;;;;;;5128033;27;20050;-66
2021/12/11 02:04:54;;;;;;;72.13;40.78;;;;;;;;;;5134371;27;20027;-65
2021/12/11 02:07:27;;;;;;;74.88;41.30;;;;;;;;;;5134377;27;20034;-67
2021/12/11 02:09:59;;;;;;;65.15;39.80;;;;;;;;;;5133975;27;20031;-65
2021/12/11 02:12:37;;;;;;;65.70;37.97;;;128.50;2252.80;;;;;;5134000;27;20019;-65
2021/12/11 02:15:05;;;;;;;63.70;41.10;;;;;;;;;;5133967;27;20110;-66
2021/12/11 02:18:00;;;;;;;66.07;40.67;;;128.50;2252.80;;;;;;5134156;27;20023;-64
2021/12/11 02:20:31;;;;;;;132.25;74.35;;;128.50;2252.80;;;;;;5126293;27;20031;-64
2021/12/11 02:22:58;;;;;;;97.67;65.83;;;;;;;;;;5113665;28;20473;-65
2021/12/11 02:25:27;;;;;;;74.25;46.00;;;;;;;;;;5112896;28;20055;-65
2021/12/11 02:27:58;;;;;;;81.70;49.50;;;;;;;;;;5113186;28;20035;-65
2021/12/11 02:30:26;;;;;;;72.85;41.75;;;;;;;;;;5113145;28;20138;-65
2021/12/11 02:32:52;;;;;;;50.80;28.70;;;;;;;;;;5127830;27;20027;-66
2021/12/11 02:35:52;;;;;;;54.72;31.83;;;;;;;;;;5133833;27;20026;-66
2021/12/11 02:38:30;;;;;;;65.07;34.78;;;;;;;;;;5056673;28;20075;-67
2021/12/11 02:41:01;;;;;;;50.53;28.70;;;;;;;;;;5049875;28;20064;-65
2021/12/11 02:43:34;;;;;;;48.47;29.33;;;;;;;;;;5050190;28;20439;-66
2021/12/11 02:46:11;;;;;;;56.88;33.50;;;;;;;;;;5050315;28;20025;-66
2021/12/11 02:48:58;;;;;;;52.25;31.10;;;;;;;;;;5049401;28;20451;-66
2021/12/11 02:51:31;;;;;;;45.75;27.38;;;;;;;;;;4971576;28;20047;-65
2021/12/11 02:54:24;;;;;;;41.97;26.23;;;128.60;2252.80;;;;;;4971282;28;20125;-66
2021/12/11 02:56:58;;;;;;;43.72;27.27;;;128.60;2252.80;;;;;;4971332;28;20074;-66
2021/12/11 02:59:27;;;;;;;50.05;30.98;;;128.80;2252.80;;;;;;4971356;28;20122;-66
2021/12/11 03:02:05;;;;;;;57.30;35.85;;;128.70;2252.80;;;;;;4954768;28;20393;-67
2021/12/11 03:04:38;;;;;;;64.00;39.30;;;;;;;;;;4971090;28;20023;-67
2021/12/11 03:07:07;;;;;;;67.55;41.05;;;;;;;;;;4971141;28;20436;-67
2021/12/11 03:09:34;;;;;;;71.40;41.90;;;;;;;;;;4971199;28;20035;-68
2021/12/11 03:12:01;;;;;;;67.13;43.30;;;;;;;;;;4971087;28;20033;-67
2021/12/11 03:14:28;;;;;;;65.72;40.20;;;;;;;;;;5029670;28;20036;-67
2021/12/11 03:16:55;;;;;;;73.07;42.20;;;;;;;;;;5049904;28;20029;-66
2021/12/11 03:19:23;;;;;;;51.40;33.97;;;;;;;;;;5050166;28;20065;-66
2021/12/11 03:21:50;;;;;;;44.92;28.45;;;;;;;;;;5050199;28;20116;-65
2021/12/11 03:24:17;;;;;;;46.25;29.35;;;;;;;;;;5050102;28;20039;-67
2021/12/11 03:26:45;;;;;;;42.42;27.65;;;;;;;;;;5032794;28;20384;-66
2021/12/11 03:29:11;;;;;;;42.33;26.27;;;;;;;;;;5103804;28;20039;-67
2021/12/11 03:31:38;;;;;;;42.30;25.80;;;;;;;;;;5132703;28;20034;-66
2021/12/11 03:34:05;;;;;;;40.13;26.05;;;;;;;;;;5124412;27;20039;-70
2021/12/11 03:36:40;;;;;;;44.05;29.75;;;;;;;;;;5119768;27;20031;-64
2021/12/11 03:39:09;;;;;;;48.15;30.90;;;;;;;;;;5119071;27;20039;-65
2021/12/11 03:41:36;;;;;;;45.08;30.40;;;;;;;;;;5132164;27;20012;-66
2021/12/11 03:44:03;;;;;;;46.85;30.10;;;;;;;;;;5137422;27;20049;-65
2021/12/11 03:46:29;;;;;;;51.67;34.40;;;;;;;;;;5119091;27;20076;-64
2021/12/11 03:49:00;;;;;;;58.63;39.17;;;;;;;;;;5129129;27;20030;-65
2021/12/11 03:51:30;;;;;;;52.83;35.40;;;;;;;;;;5136970;27;20102;-66
2021/12/11 03:53:57;;;;;;;48.50;31.42;;;;;;;;;;5137007;27;20292;-65
2021/12/11 03:56:24;;;;;;;62.67;41.03;;;;;;;;;;5136763;27;20477;-65
2021/12/11 03:58:51;;;;;;;63.55;39.25;;;;;;;;;;5128483;27;20050;-66
2021/12/11 04:01:33;;;;;;;56.22;36.33;;;;;;;;;;5117031;27;20043;-67
2021/12/11 04:04:02;;;;;;;46.67;31.77;;;;;;;;;;5136644;27;20110;-66
2021/12/11 04:06:29;;;;;;;52.45;32.63;;;;;;;;;;5136729;27;20473;-67
2021/12/11 04:08:56;;;;;;;50.00;31.38;;;;;;;;;;5136626;27;20019;-65
2021/12/11 04:11:24;;;;;;;47.53;29.48;;;;;;;;;;5136400;27;20027;-65
2021/12/11 04:13:52;;;;;;;44.72;28.35;;;;;;;;;;5136436;27;20019;-67
2021/12/11 04:16:19;;;;;;;64.13;37.10;;;;;;;;;;5136768;27;20122;-65
2021/12/11 04:18:45;;;;;;;64.63;37.55;;;;;;;;;;5136132;27;20035;-65
2021/12/11 04:21:11;;;;;;;42.83;27.17;;;;;;;;;;5136384;27;20023;-67
2021/12/11 04:23:38;;;;;;;40.78;26.02;;;;;;;;;;5136252;27;20451;-66
2021/12/11 04:26:05;;;;;;;42.58;26.20;;;;;;;;;;5136293;27;20080;-66
2021/12/11 04:28:32;;;;;;;34.40;21.52;;;;;;;;;;5119316;27;20077;-66
2021/12/11 04:31:04;;;;;;;31.35;20.77;;;;;;;;;;5114297;28;20043;-65
2021/12/11 04:33:32;;;;;;;32.20;22.90;;;;;;;;;;5133934;28;20362;-65
2021/12/11 04:36:00;;;;;;;35.45;24.20;;;;;;;;;;5134843;27;20477;-65
2021/12/11 04:38:26;;;;;;;160.80;79.90;;;;;;;;;;5134877;27;20039;-67
2021/12/11 04:40:56;;;;;;;88.60;48.60;;;;;;;;;;5135072;27;20023;-67
2021/12/11 04:43:24;;;;;;;45.85;30.80;;;;;;;;;;5134673;27;20030;-68
2021/12/11 04:45:55;;;;;;;43.88;27.73;;;;;;;;;;5134688;27;20491;-67
2021/12/11 04:51:27;;;;;;;46.85;28.65;;;;;;;;;;5134983;28;20088;-67
2021/12/11 04:54:17;;;;;;;62.55;36.15;;;;;;;;;;5134646;27;20011;-68
2021/12/11 05:04:39;;;;;;;57.47;37.60;;;;;;;;;;5134479;27;20029;-67
2021/12/11 05:07:22;;;;;;;101.57;61.00;;;;;;;;;;5134846;28;20082;-67
2021/12/11 05:09:56;;;;;;;75.05;46.42;;;;;;;;;;5134283;27;20534;-67
2021/12/11 05:14:51;;;;;;;66.53;41.83;;;;;;;;;;5134490;27;20039;-66
2021/12/11 05:17:17;;;;;;;232.57;128.35;;;;;;;;;;5135204;27;20011;-66
2021/12/11 05:19:45;;;;;;;151.40;85.70;;;;;;;;;;5134341;27;20114;-67
2021/12/11 05:22:12;;;;;;;156.15;92.13;;;;;;;;;;5134136;27;20542;-67
2021/12/11 05:24:40;;;;;;;92.25;54.67;;;;;;;;;;5134010;27;20110;-68
2021/12/11 05:27:06;;;;;;;105.15;65.35;;;154.00;2252.80;;;;;;5133844;27;20053;-66
2021/12/11 05:29:32;;;;;;;98.97;61.40;;;154.00;2252.80;;;;;;5088819;27;1265230;-68
2021/12/11 05:31:59;;;;;;;77.13;50.28;;;154.10;2252.80;;;;;;5134819;27;20274;-66
2021/12/11 05:34:25;;;;;;;86.50;56.03;;;154.00;2252.80;;;;;;5133618;27;20035;-65
2021/12/11 05:36:51;;;;;;;82.63;52.80;;;154.10;2252.80;;;;;;5135053;27;20106;-65
2021/12/11 05:39:19;;;;;;;99.18;62.00;;;154.10;2252.80;;;;;;5135175;27;20168;-66
2021/12/11 05:41:46;;;;;;;97.47;60.60;;;154.10;2252.80;;;;;;5135122;27;20389;-66
2021/12/11 05:44:12;;;;;;;90.82;58.28;;;154.10;2252.80;;;;;;5134624;27;20440;-66
2021/12/11 05:46:39;;;;;;;89.22;56.03;;;154.10;2252.80;;;;;;5134942;27;20019;-65
2021/12/11 05:49:06;;;;;;;116.70;69.25;;;154.10;2252.80;;;;;;5134524;27;20076;-65
2021/12/11 05:51:38;;;;;;;124.93;74.32;;;154.10;2252.80;;;;;;5134704;27;20023;-65
2021/12/11 05:54:10;;;;;;;115.93;69.22;;;154.20;2252.80;;;;;;5134571;27;20536;-68
2021/12/11 05:56:38;;;;;;;111.07;65.20;;;154.20;2252.80;;;;;;5134185;27;20072;-66
2021/12/11 05:59:06;;;;;;;102.32;62.65;;;154.40;2252.80;;;;;;5133150;27;20061;-68
2021/12/11 06:02:04;;;;;;;96.30;59.05;;;154.20;2252.80;;;;;;5134172;27;20477;-65
2021/12/11 06:04:34;;;;;;;100.32;58.35;;;153.80;2252.80;;;;;;5130945;27;20060;-65
2021/12/11 06:07:04;;;;;;;108.18;62.22;;;153.80;2252.80;;;;;;5134141;27;20536;-65
2021/12/11 06:09:29;;;;;;;100.43;61.85;;;153.80;2252.80;;;;;;5134187;27;20031;-65
2021/12/11 06:12:01;;;;;;;100.85;59.80;;;153.90;2252.80;;;;;;5129907;27;20102;-64
2021/12/11 06:14:27;;;;;;;99.80;61.35;;;154.00;2252.80;;;;;;5113427;27;20026;-64
2021/12/11 06:16:56;;;;;;;97.05;59.10;;;154.10;2252.80;;;;;;5115151;27;20031;-65
2021/12/11 06:19:24;;;;;;;94.80;60.10;;;154.20;2252.80;;;;;;5113448;28;20089;-66
2021/12/11 06:21:51;;;;;;;101.65;60.35;;;154.10;2252.80;;;;;;5123617;27;20011;-65
2021/12/11 06:24:18;;;;;;;98.32;62.72;;;154.10;2252.80;;;;;;5134014;27;20080;-65
2021/12/11 06:26:44;;;;;;;98.13;61.33;;;153.90;2252.80;;;;;;5134182;27;20046;-65
2021/12/11 06:29:10;;;;;;;106.82;63.65;;;153.60;2252.80;;;;;;5133443;27;20408;-64
2021/12/11 06:31:36;;;;;;;137.52;90.60;;;153.80;2252.80;;;;;;5133665;27;20075;-64
2021/12/11 06:34:02;;;;;;;107.75;67.22;;;153.80;2252.80;;;;;;5132486;27;20027;-65
2021/12/11 06:36:28;;;;;;;112.10;73.95;;;154.10;2252.80;;;;;;5131917;27;20031;-63
2021/12/11 06:38:57;;;;;;;134.88;85.97;;;;;;;;;;5133764;27;20385;-65
2021/12/11 06:41:25;;;;;;;137.98;88.78;;;;;;;;;;5115171;27;20172;-65
2021/12/11 06:43:51;;;;;;;125.97;85.82;;;;;;;;;;5133508;27;20023;-64
2021/12/11 06:46:18;;;;;;;132.52;89.57;;;153.80;2252.80;;;;;;5133386;27;20102;-64
2021/12/11 06:48:44;;;;;;;128.43;86.15;;;154.10;2252.80;;;;;;5133255;27;20410;-63
2021/12/11 06:51:10;;;;;;;129.15;88.22;;;153.90;2252.80;;;;;;5133322;27;20110;-64
2021/12/11 06:53:45;;;;;;;118.85;79.68;;;153.90;2252.80;;;;;;5133433;27;20094;-64
2021/12/11 06:56:13;;;;;;;112.95;76.03;;;153.80;2252.80;;;;;;5133382;27;20026;-68
2021/12/11 06:58:40;;;;;;;99.38;62.10;;;;;;;;;;5132962;27;20087;-64
2021/12/11 07:01:07;;;;;;;116.30;68.50;;;;;;;;;;5133266;27;20051;-67
2021/12/11 07:03:33;;;;;;;126.70;72.88;;;;;;;;;;5132990;27;20529;-68
2021/12/11 07:06:00;;;;;;;126.97;78.80;;;;;;;;;;5133106;27;20039;-65
2021/12/11 07:08:27;;;;;;;104.03;58.63;;;;;;;;;;5132989;27;20019;-67
2021/12/11 07:10:54;;;;;;;95.93;56.25;;;;;;;;;;5133207;27;20043;-64
2021/12/11 07:13:20;;;;;;;90.22;56.25;;;;;;;;;;5133341;27;20422;-65
2021/12/11 07:15:46;;;;;;;73.13;46.00;;;;;;;;;;5133243;27;20115;-64
2021/12/11 07:18:12;;;;;;;64.85;42.60;;;154.10;2252.80;;;;;;5133351;27;20030;-65
2021/12/11 07:20:38;;;;;;;66.65;43.45;;;154.20;2252.80;;;;;;5132994;27;20019;-65
2021/12/11 07:23:05;;;;;;;71.60;46.35;;;;;;;;;;5132540;28;20016;-66
2021/12/11 07:25:34;;;;;;;109.93;64.85;;;;;;;;;;5124534;28;20027;-65
2021/12/11 07:28:04;;;;;;;79.18;53.92;;;;;;;;;;5132883;28;20034;-66
2021/12/11 07:30:30;;;;;;;68.18;46.35;;;;;;;;;;5132993;28;20502;-65
2021/12/11 07:32:57;;;;;;;69.10;48.58;;;;;;;;;;5133001;28;20022;-64
2021/12/11 07:35:23;;;;;;;66.13;44.67;;;;;;;;;;5133349;27;20016;-65
2021/12/11 07:37:51;;;;;;;62.30;44.60;;;;;;;;;;5133196;27;20361;-66
2021/12/11 07:40:24;;;;;;;73.70;48.03;;;;;;;;;;5133341;27;20038;-65
2021/12/11 07:42:50;;;;;;;113.60;69.43;;;;;;;;;;5133239;27;20023;-65
2021/12/11 07:45:17;;;;;;;154.60;91.43;;;;;;;;;;5132965;27;20141;-65
2021/12/11 07:47:43;;;;;;;107.50;72.75;;;;;;;;;;5132649;27;20434;-65
2021/12/11 07:50:11;;;;;;;110.88;74.43;;;;;;;;;;5132727;27;20497;-67
2021/12/11 07:52:38;;;;;;;86.75;58.92;;;;;;;;;;5132904;27;20029;-65
2021/12/11 07:55:05;;;;;;;86.93;59.63;;;;;;;;;;5132691;27;20053;-65
2021/12/11 07:57:31;;;;;;;96.72;63.30;;;;;;;;;;5132828;27;20033;-65
2021/12/11 07:59:57;;;;;;;76.65;50.17;;;;;;;;;;5132601;27;20122;-66
2021/12/11 08:02:23;;;;;;;57.47;36.88;;;;;;;;;;5132477;27;20500;-65
2021/12/11 08:04:50;;;;;;;66.75;42.30;;;;;;;;;;5130743;28;20123;-65
2021/12/11 08:07:16;;;;;;;130.25;85.05;;;;;;;;;;5132520;27;20028;-65
2021/12/11 08:09:42;;;;;;;131.77;87.93;;;;;;;;;;5132780;27;20051;-66
2021/12/11 08:12:08;;;;;;;381.88;222.68;;;;;;;;;;5132552;27;20024;-65
2021/12/11 08:14:34;;;;;;;302.55;175.13;;;;;;;;;;5132415;27;20020;-66
2021/12/11 08:17:04;;;;;;;146.18;92.03;;;;;;;;;;5132753;27;20038;-65
2021/12/11 08:19:31;;;;;;;92.53;58.22;;;;;;;;;;5132181;27;20453;-65
2021/12/11 08:21:59;;;;;;;154.48;96.32;;;;;;;;;;5133279;27;20035;-66
2021/12/11 08:24:27;;;;;;;113.90;70.70;;;;;;;;;;5134449;27;20031;-65
2021/12/11 08:26:54;;;;;;;87.57;54.13;;;128.50;2252.80;;;;;;5136162;27;20019;-66
2021/12/11 08:29:20;;;;;;;112.30;65.80;;;128.40;2252.80;;;;;;5135729;27;20536;-64
2021/12/11 08:31:49;;;;;;;143.63;104.72;;;128.30;2252.80;;;;;;5135914;27;20121;-64
2021/12/11 08:34:15;;;;;;;57.80;41.80;;;;;;;;;;5135893;27;20038;-65
2021/12/11 08:36:43;;;;;;;51.08;33.58;;;128.40;2252.80;;;;;;5134444;27;20067;-64
2021/12/11 08:39:12;;;;;;;62.17;39.60;;;128.30;2252.80;;;;;;5135664;27;20024;-64
2021/12/11 08:41:39;;;;;;;71.35;47.17;;;128.30;2252.80;;;;;;5135776;27;20020;-64
2021/12/11 08:44:10;;;;;;;68.85;43.13;;;;;;;;;;5135745;27;20056;-64
2021/12/11 08:46:38;;;;;;;76.13;48.58;;;128.50;2252.80;;;;;;5135765;27;20026;-68
2021/12/11 08:49:09;;;;;;;85.43;56.10;;;;;;;;;;5135548;27;20830;-65
2021/12/11 08:51:37;;;;;;;78.47;51.05;;;;;;;;;;5135700;27;20468;-66
2021/12/11 08:54:04;;;;;;;92.65;67.55;;;;;;;;;;5135815;27;20539;-66
2021/12/11 08:56:30;;;;;;;74.88;54.40;;;154.00;2252.80;;;;;;5135609;27;20051;-66
2021/12/11 08:58:56;;;;;;;77.60;53.20;;;154.10;2252.80;;;;;;5135205;27;20062;-65
2021/12/11 09:01:26;;;;;;;80.97;54.22;;;154.30;2252.80;;;;;;5135356;27;20028;-66
2021/12/11 09:04:04;;;;;;;72.88;46.67;;;154.30;2252.80;;;;;;5135410;27;20023;-65
2021/12/11 09:06:59;;;;;;;89.50;56.22;;;154.50;2252.80;;;;;;5135329;27;20026;-65
2021/12/11 09:09:28;;;;;;;87.85;54.35;;;154.30;2252.80;;;;;;5071879;28;20044;-64
2021/12/11 09:11:59;;;;;;;96.50;61.03;;;153.90;2252.80;;;;;;5071652;28;20033;-65
2021/12/11 09:14:38;;;;;;;74.95;49.22;;;154.20;2252.80;;;;;;5071637;28;20047;-65
2021/12/11 09:17:15;;;;;;;70.03;46.58;;;154.40;2252.80;;;;;;5071835;28;20097;-65
2021/12/11 09:19:52;;;;;;;58.05;39.17;;;154.50;2252.80;;;;;;5071625;28;20052;-66
2021/12/11 09:22:32;;;;;;;70.82;46.25;;;154.50;2252.80;;;;;;5055295;28;20028;-64
2021/12/11 09:25:11;;;;;;;74.38;49.88;;;;;;;;;;5071601;28;20082;-65
2021/12/11 09:27:37;;;;;;;76.80;51.95;;;;;;;;;;5071170;28;20546;-65
2021/12/11 09:30:16;;;;;;;87.80;57.50;;;;;;;;;;5071576;28;20072;-66
2021/12/11 09:32:49;;;;;;;82.03;56.20;;;;;;;;;;5070850;28;20270;-65
2021/12/11 09:35:30;;;;;;;100.93;67.85;;;;;;;;;;5070941;28;20111;-65
2021/12/11 09:38:05;;;;;;;104.83;67.97;;;179.20;2252.80;;;;;;5071732;28;20025;-65
2021/12/11 09:40:39;;;;;;;89.85;59.17;;;154.40;2252.80;;;;;;5072033;28;20068;-65
2021/12/11 09:43:04;;;;;;;94.30;67.85;;;154.40;2252.80;;;;;;5071495;28;20373;-67
2021/12/11 09:45:33;;;;;;;95.68;65.22;;;;;;;;;;5076821;28;20128;-63
2021/12/11 09:48:02;;;;;;;89.95;56.33;;;;;;;;;;5111600;28;20369;-65
2021/12/11 09:50:35;;;;;;;100.30;66.47;;;;;;;;;;5092070;28;20429;-67
2021/12/11 09:53:01;;;;;;;116.55;75.22;;;;;;;;;;5093761;28;20066;-64
2021/12/11 09:55:33;;;;;;;104.00;70.28;;;;;;;;;;5093161;28;20389;-65
2021/12/11 09:58:01;;;;;;;161.52;105.60;;;;;;;;;;5092915;28;20028;-66
2021/12/11 10:00:50;;;;;;;169.85;126.93;;;154.20;2252.80;;;;;;5092874;28;20028;-66
2021/12/11 10:03:20;;;;;;;97.82;64.03;;;154.40;2252.80;;;;;;5077640;28;20426;-68
2021/12/11 10:05:55;;;;;;;104.78;62.10;;;154.50;2252.80;;;;;;5093091;28;20028;-65
2021/12/11 10:11:17;;;;;;;134.18;87.20;;;154.00;2252.80;;;;;;5092835;28;20031;-63
2021/12/11 10:14:03;;;;;;;95.00;62.15;;;153.90;2252.80;;;;;;5075547;28;20094;-63
2021/12/11 10:16:33;;;;;;;78.43;47.72;;;;;;;;;;5074209;28;20024;-63
2021/12/11 10:18:59;;;;;;;71.25;48.20;;;;;;;;;;5092710;28;20040;-63
2021/12/11 10:21:28;;;;;;;51.85;39.22;;;;;;;;;;5092737;28;20020;-65
2021/12/11 10:23:59;;;;;;;50.70;34.92;;;153.70;2252.80;;;;;;5092740;28;20090;-63
2021/12/11 10:26:26;;;;;;;43.40;33.45;;;;;;;;;;5092709;28;20055;-66
2021/12/11 10:28:56;;;;;;;53.13;39.45;;;;;;;;;;5081975;28;20498;-66
2021/12/11 10:31:45;;;;;;;55.40;38.95;;;128.70;2252.80;;;;;;5112894;28;20039;-67
2021/12/11 10:34:15;;;;;;;62.65;42.05;;;128.60;2252.80;;;;;;5112957;28;20020;-65
2021/12/11 10:36:45;;;;;;;74.95;49.58;;;;;;;;;;5112773;28;20027;-65
2021/12/11 10:39:13;;;;;;;79.55;53.22;;;128.30;2252.80;;;;;;5112755;28;20079;-63
2021/12/11 10:41:40;;;;;;;92.65;59.15;;;128.40;2252.80;;;;;;5112934;28;20073;-64
2021/12/11 10:44:16;;;;;;;101.90;68.95;;;128.50;2252.80;;;;;;5112740;28;20030;-64
2021/12/11 10:46:47;;;;;;;124.28;77.97;;;;;;;;;;5112819;28;20080;-66
2021/12/11 10:49:14;;;;;;;127.40;81.95;;;153.90;2252.80;;;;;;5112611;28;20081;-65
2021/12/11 10:51:45;;;;;;;107.32;71.05;;;154.00;2252.80;;;;;;5112819;28;20437;-66
2021/12/11 10:54:14;;;;;;;91.97;59.90;;;154.50;2252.80;;;;;;5107868;28;20027;-68
2021/12/11 10:56:40;;;;;;;81.22;50.42;;;;;;;;;;5112691;27;20024;-63
2021/12/11 10:59:09;;;;;;;74.50;54.47;;;;;;;;;;5110577;28;20405;-63
2021/12/11 11:01:41;;;;;;;91.10;58.40;;;;;;;;;;5102962;28;20024;-65
2021/12/11 11:04:11;;;;;;;73.20;50.30;;;;;;;;;;5109239;28;20070;-65
2021/12/11 11:06:37;;;;;;;85.63;53.72;;;;;;;;;;5111785;28;20035;-65
2021/12/11 11:09:06;;;;;;;95.55;61.30;;;;;;;;;;5112529;28;20034;-66
2021/12/11 11:11:33;;;;;;;69.82;44.35;;;;;;;;;;5112005;28;20027;-65
2021/12/11 11:14:01;;;;;;;80.65;52.45;;;;;;;;;;5111865;28;20050;-65
2021/12/11 11:16:27;;;;;;;68.70;46.28;;;;;;;;;;5111916;28;20011;-64
2021/12/11 11:18:53;;;;;;;94.10;60.47;;;;;;;;;;5111916;28;20044;-65
2021/12/11 11:21:25;;;;;;;74.30;51.97;;;;;;;;;;5112239;28;20023;-65
2021/12/11 11:23:51;;;;;;;60.05;42.38;;;;;;;;;;5112471;28;20023;-64
2021/12/11 11:26:20;;;;;;;56.95;40.20;;;;;;;;;;5111989;28;20066;-63
2021/12/11 11:28:46;;;;;;;72.50;50.88;;;;;;;;;;5093603;28;20393;-65
2021/12/11 11:31:24;;;;;;;71.75;47.22;;;;;;;;;;5111895;28;20051;-64
2021/12/11 11:33:51;;;;;;;74.40;50.30;;;;;;;;;;5132012;28;20027;-66
2021/12/11 11:36:18;;;;;;;77.53;52.72;;;;;;;;;;5132737;28;20019;-65
2021/12/11 11:38:46;;;;;;;84.38;63.47;;;;;;;;;;5132612;28;20038;-64
2021/12/11 11:41:15;;;;;;;80.25;54.95;;;;;;;;;;5133190;28;20079;-64
2021/12/11 11:43:42;;;;;;;90.53;63.10;;;;;;;;;;5132904;28;20057;-65
2021/12/11 11:46:08;;;;;;;75.38;51.42;;;;;;;;;;5113729;28;20031;-64
2021/12/11 11:48:36;;;;;;;89.07;61.03;;;;;;;;;;5132765;28;20046;-65
2021/12/11 11:51:05;;;;;;;74.32;51.35;;;;;;;;;;5132771;28;20486;-65
2021/12/11 11:53:31;;;;;;;77.03;54.67;;;;;;;;;;5132306;28;20124;-65
2021/12/11 11:55:59;;;;;;;79.38;54.60;;;;;;;;;;5132190;27;20035;-64
2021/12/11 11:58:27;;;;;;;71.60;48.42;;;;;;;;;;5135732;27;20039;-64
2021/12/11 12:00:57;;;;;;;68.05;47.63;;;;;;;;;;5136418;27;20050;-64
2021/12/11 12:03:26;;;;;;;63.15;45.22;;;;;;;;;;5136047;27;20076;-64
2021/12/11 12:05:55;;;;;;;57.97;41.95;;;;;;;;;;5136468;27;20015;-64
2021/12/11 12:08:22;;;;;;;55.55;38.85;;;;;;;;;;5136012;27;20023;-64
2021/12/11 12:10:50;;;;;;;73.38;48.22;;;;;;;;;;5136040;27;20027;-65
2021/12/11 12:13:18;;;;;;;55.80;39.22;;;;;;;;;;5136418;27;20024;-66
2021/12/11 12:15:51;;;;;;;75.32;49.60;;;179.50;2252.80;;;;;;5136069;27;20560;-63
2021/12/11 12:18:19;;;;;;;53.65;38.42;;;179.60;2252.80;;;;;;5136118;27;20019;-63
2021/12/11 12:20:46;;;;;;;65.93;49.63;;;179.30;2252.80;;;;;;5136207;27;20117;-64
2021/12/11 12:23:12;;;;;;;63.95;49.67;;;;;;;;;;5136004;27;20166;-64
2021/12/11 12:25:39;;;;;;;66.00;48.28;;;;;;;;;;5136264;27;20035;-64
2021/12/11 12:28:05;;;;;;;59.17;44.75;;;;;;;;;;5136522;27;20027;-63
2021/12/11 12:30:38;;;;;;;73.13;54.78;;;;;;;;;;5135849;27;20051;-64
2021/12/11 12:33:07;;;;;;;56.55;40.97;;;179.40;2252.80;;;;;;5135789;27;20109;-62
2021/12/11 12:35:33;;;;;;;74.43;51.25;;;179.30;2252.80;;;;;;5135877;27;20019;-63
2021/12/11 12:38:02;;;;;;;67.03;49.33;;;179.40;2252.80;;;;;;5136153;27;20028;-63
2021/12/11 12:40:41;;;;;;;76.95;54.20;;;179.60;2252.80;;;;;;5136075;27;20100;-64
2021/12/11 12:43:31;;;;;;;76.13;54.88;;;179.70;2252.80;;;;;;5135780;27;20457;-63
2021/12/11 12:45:57;;;;;;;70.90;48.25;;;179.70;2252.80;;;;;;5136062;27;20054;-63
2021/12/11 12:48:23;;;;;;;83.82;59.30;;;179.70;2252.80;;;;;;5135951;27;20027;-63
2021/12/11 12:50:58;;;;;;;84.45;58.75;;;179.50;2252.80;;;;;;5135900;27;20429;-64
2021/12/11 12:53:24;;;;;;;72.35;50.03;;;;;;;;;;5136298;27;20080;-62
2021/12/11 12:55:58;;;;;;;80.05;59.50;;;;;;;;;;5136014;27;20028;-63
2021/12/11 12:58:30;;;;;;;84.80;54.20;;;179.70;2252.80;;;;;;5117072;27;20073;-64
2021/12/11 13:01:05;;;;;;;72.53;49.85;;;179.70;2252.80;;;;;;5135494;27;20031;-63
2021/12/11 13:03:35;;;;;;;79.65;52.58;;;179.60;2252.80;;;;;;5135319;27;20031;-62
2021/12/11 13:06:12;;;;;;;68.72;48.50;;;179.60;2252.80;;;;;;5135676;27;20064;-63
2021/12/11 13:08:55;;;;;;;60.00;42.20;;;;;;;;;;5135013;27;20035;-63
2021/12/11 13:11:30;;;;;;;66.13;47.80;;;;;;;;;;5135654;27;20026;-63
2021/12/11 13:13:59;;;;;;;72.93;51.35;;;179.20;2252.80;;;;;;5135522;27;20019;-63
2021/12/11 13:16:26;;;;;;;60.53;43.70;;;;;;;;;;5135273;27;20019;-64
2021/12/11 13:18:58;;;;;;;55.92;39.97;;;;;;;;;;5135242;27;20042;-64
2021/12/11 13:21:27;;;;;;;49.00;34.47;;;;;;;;;;5135234;27;20094;-66
2021/12/11 13:23:55;;;;;;;51.90;37.45;;;;;;;;;;5134685;27;20038;-68
2021/12/11 13:26:23;;;;;;;54.70;39.45;;;;;;;;;;5135038;27;20046;-66
2021/12/11 13:28:55;;;;;;;60.20;41.17;;;153.60;2252.80;;;;;;5134919;27;20469;-65
2021/12/11 13:31:35;;;;;;;59.20;42.55;;;153.60;2252.80;;;;;;5134614;27;20027;-65
2021/12/11 13:34:02;;;;;;;79.20;55.67;;;153.60;2252.80;;;;;;5116054;27;20027;-66
2021/12/11 13:36:28;;;;;;;72.65;48.00;;;128.90;2252.80;;;;;;5134887;27;20015;-64
2021/12/11 13:38:55;;;;;;;67.55;47.78;;;153.80;2252.80;;;;;;5134461;27;20046;-65
2021/12/11 13:41:27;;;;;;;98.60;70.30;;;;;;;;;;5135173;27;20118;-66
2021/12/11 13:43:54;;;;;;;71.15;49.50;;;;;;;;;;5134830;27;20055;-66
2021/12/11 13:46:20;;;;;;;99.70;75.25;;;;;;;;;;5134667;27;20027;-66
2021/12/11 13:48:46;;;;;;;57.35;39.63;;;;;;;;;;5134652;27;20019;-64